Time;durP1;ratioP1;P1;durP2;ratioP2;P2;SDS_P1;SDS_P2;PMS_P1;PMS_P2;Temp;Humidity;BMP_temperature;BMP_pressure;BME280_temperature;BME280_humidity;BME280_pressure;Samples;Min_cycle;Max_cycle;Signal;HPM_P1;HPM_P2
2022/01/04 00:00:25;;;;;;;;;;;;;;;;;;1004937;29;1771;-23
2022/01/04 00:00:55;;;;;;;;;;;;;;;;;;1005172;29;1365;-25
2022/01/04 00:01:26;;;;;;;;;;;;;;;;;;1003690;29;979;-23
2022/01/04 00:01:58;;;;;;;;;;;;;;;;;;1006771;29;1669;-24
2022/01/04 00:02:29;;;;;;;;;;;;;;;;;;1011915;29;1323;-24
2022/01/04 00:02:59;;;;;;;;;;;;;;;;;;1011508;29;1334;-24
2022/01/04 00:03:29;;;;;;;;;;;;;;;;;;1011872;29;1263;-24
2022/01/04 00:04:00;;;;;;;;;;;;;;;;;;1011681;29;1291;-24
2022/01/04 00:04:31;;;;;;;;;;;;;;;;;;1007433;29;1330;-24
2022/01/04 00:05:01;;;;;;;;;;;;;;;;;;1007662;29;1607;-24
2022/01/04 00:05:32;;;;;;;;;;;;;;;;;;1007520;29;1469;-24
2022/01/04 00:06:03;;;;;;;;;;;;;;;;;;1007657;29;1304;-24
2022/01/04 00:06:33;;;;;;;;;;;;;;;;;;1011589;29;1322;-24
2022/01/04 00:07:04;;;;;;;;;;;;;;;;;;1011897;29;1349;-23
2022/01/04 00:07:35;;;;;;;;;;;;;;;;;;1011725;29;1540;-24
2022/01/04 00:08:09;;;;;;;;;;;;;;;;;;1011409;29;1422;-24
2022/01/04 00:08:39;;;;;;;;;;;;;;;;;;1011685;29;1275;-24
2022/01/04 00:09:11;;;;;;;;;;;;;;;;;;1011573;29;1338;-24
2022/01/04 00:09:43;;;;;;;;;;;;;;;;;;1011748;29;1263;-24
2022/01/04 00:10:20;;;;;;;;;;;;;;;;;;1011785;29;1378;-24
2022/01/04 00:10:54;;;;;;;;;;;;;;;;;;1009774;29;1291;-24
2022/01/04 00:11:42;;;;;;;;;;;;;;;;;;1011742;29;1446;-24
2022/01/04 00:13:50;;;;;;;;;;;;;;;;;;1011839;29;1919;-24
2022/01/04 00:14:21;;;;;;;;;;;;;;;;;;1007822;29;1366;-24
2022/01/04 00:14:51;;;;;;;;;;;;;;;;;;1007134;29;1291;-24
2022/01/04 00:15:22;;;;;;;;;;;;;;;;;;1007387;29;1260;-24
2022/01/04 00:15:54;;;;;;;;;;;;;;;;;;1007367;29;1268;-24
2022/01/04 00:16:24;;;;;;;;;;;;;;;;;;1011400;29;1173;-24
2022/01/04 00:16:55;;;;;;;;;;;;;;;;;;1011621;29;1216;-24
2022/01/04 00:17:25;;;;;;;;;;;;;;;;;;1011320;29;1172;-24
2022/01/04 00:17:56;;;;;;;;;;;;;;;;;;1011648;29;1240;-24
2022/01/04 00:18:26;;;;;;;;;;;;;;;;;;1011436;29;1236;-24
2022/01/04 00:18:56;;;;;;;;;;;;;;;;;;1011609;29;939;-24
2022/01/04 00:19:27;;;;;;;;;;;;;;;;;;1011677;29;907;-24
2022/01/04 00:19:57;;;;;;;;;;;;;;;;;;1011516;29;955;-23
2022/01/04 00:20:27;;;;;;;;;;;;;;;;;;1011676;29;919;-24
2022/01/04 00:20:58;;;;;;;;;;;;;;;;;;1011654;29;904;-24
2022/01/04 00:21:28;;;;;;;;;;;;;;;;;;1011571;29;888;-24
2022/01/04 00:22:00;;;;;;;;;;;;;;;;;;1011733;29;800;-24
2022/01/04 00:22:30;;;;;;;;;;;;;;;;;;1011030;29;966;-24
2022/01/04 00:23:01;;;;;;;;;;;;;;;;;;1011400;29;947;-24
2022/01/04 00:23:31;;;;;;;;;;;;;;;;;;1011241;29;947;-24
2022/01/04 00:24:02;;;;;;;;;;;;;;;;;;1011317;29;887;-24
2022/01/04 00:24:32;;;;;;;;;;;;;;;;;;1011617;29;994;-24
2022/01/04 00:25:03;;;;;;;;;;;;;;;;;;1011687;29;796;-23
2022/01/04 00:25:33;;;;;;;;;;;;;;;;;;1011302;29;907;-24
2022/01/04 00:26:04;;;;;;;;;;;;;;;;;;1011703;29;930;-24
2022/01/04 00:26:35;;;;;;;;;;;;;;;;;;1010965;29;1164;-24
2022/01/04 00:27:05;;;;;;;;;;;;;;;;;;1011424;29;820;-24
2022/01/04 00:27:35;;;;;;;;;;;;;;;;;;1011098;29;892;-24
2022/01/04 00:28:07;;;;;;;;;;;;;;;;;;1011283;29;1000;-24
2022/01/04 00:28:37;;;;;;;;;;;;;;;;;;1011627;29;848;-24
2022/01/04 00:29:08;;;;;;;;;;;;;;;;;;1011578;29;871;-24
2022/01/04 00:29:38;;;;;;;;;;;;;;;;;;1011514;29;899;-23
2022/01/04 00:30:08;;;;;;;;;;;;;;;;;;1011760;29;923;-23
2022/01/04 00:30:40;;;;;;;;;;;;;;;;;;1011074;29;856;-24
2022/01/04 00:31:10;;;;;;;;;;;;;;;;;;1011277;29;959;-24
2022/01/04 00:31:40;;;;;;;;;;;;;;;;;;1011157;29;813;-24
2022/01/04 00:32:10;;;;;;;;;;;;;;;;;;1011271;29;825;-24
2022/01/04 00:32:41;;;;;;;;;;;;;;;;;;1011678;29;875;-24
2022/01/04 00:33:12;;;;;;;;;;;;;;;;;;1011420;29;1678;-24
2022/01/04 00:33:43;;;;;;;;;;;;;;;;;;1011498;29;1907;-24
2022/01/04 00:34:13;;;;;;;;;;;;;;;;;;1011353;29;1204;-24
2022/01/04 00:34:43;;;;;;;;;;;;;;;;;;1011520;29;1266;-24
2022/01/04 00:35:14;;;;;;;;;;;;;;;;;;1011563;29;955;-24
2022/01/04 00:35:44;;;;;;;;;;;;;;;;;;1011327;29;954;-24
2022/01/04 00:36:15;;;;;;;;;;;;;;;;;;1011607;29;860;-24
2022/01/04 00:36:45;;;;;;;;;;;;;;;;;;1011630;29;935;-24
2022/01/04 00:37:15;;;;;;;;;;;;;;;;;;1011507;29;875;-24
2022/01/04 00:37:46;;;;;;;;;;;;;;;;;;1011508;29;919;-24
2022/01/04 00:38:16;;;;;;;;;;;;;;;;;;1011585;29;832;-24
2022/01/04 00:38:47;;;;;;;;;;;;;;;;;;1011555;29;1021;-24
2022/01/04 00:39:17;;;;;;;;;;;;;;;;;;1011605;29;959;-24
2022/01/04 00:39:47;;;;;;;;;;;;;;;;;;1011483;29;833;-24
2022/01/04 00:40:18;;;;;;;;;;;;;;;;;;1011622;29;959;-24
2022/01/04 00:40:48;;;;;;;;;;;;;;;;;;1011523;29;959;-24
2022/01/04 00:41:18;;;;;;;;;;;;;;;;;;1011255;29;904;-24
2022/01/04 00:41:49;;;;;;;;;;;;;;;;;;1011245;29;840;-24
2022/01/04 00:42:19;;;;;;;;;;;;;;;;;;1011124;29;1034;-24
2022/01/04 00:42:50;;;;;;;;;;;;;;;;;;1011257;29;1033;-24
2022/01/04 00:43:20;;;;;;;;;;;;;;;;;;1011668;29;896;-24
2022/01/04 00:43:50;;;;;;;;;;;;;;;;;;1011430;29;847;-24
2022/01/04 00:44:21;;;;;;;;;;;;;;;;;;1011510;29;1732;-24
2022/01/04 00:44:51;;;;;;;;;;;;;;;;;;1011362;29;1255;-24
2022/01/04 00:45:22;;;;;;;;;;;;;;;;;;1011704;29;915;-24
2022/01/04 00:45:53;;;;;;;;;;;;;;;;;;1011475;29;1113;-24
2022/01/04 00:46:23;;;;;;;;;;;;;;;;;;1011422;29;971;-24
2022/01/04 00:46:54;;;;;;;;;;;;;;;;;;1011520;29;1075;-24
2022/01/04 00:47:38;;;;;;;;;;;;;;;;;;1011631;29;860;-24
2022/01/04 00:49:28;;;;;;;;;;;;;;;;;;1011668;29;888;-23
2022/01/04 00:49:58;;;;;;;;;;;;;;;;;;1011495;29;995;-24
2022/01/04 00:50:29;;;;;;;;;;;;;;;;;;1011506;29;919;-29
2022/01/04 00:50:59;;;;;;;;;;;;;;;;;;1011616;29;899;-24
2022/01/04 00:51:30;;;;;;;;;;;;;;;;;;1011456;29;879;-24
2022/01/04 00:52:01;;;;;;;;;;;;;;;;;;1011639;29;904;-24
2022/01/04 00:52:31;;;;;;;;;;;;;;;;;;1011459;29;829;-24
2022/01/04 00:53:02;;;;;;;;;;;;;;;;;;1011499;29;1053;-24
2022/01/04 00:53:33;;;;;;;;;;;;;;;;;;1011497;29;892;-24
2022/01/04 00:54:04;;;;;;;;;;;;;;;;;;1011493;29;1903;-24
2022/01/04 00:54:35;;;;;;;;;;;;;;;;;;1011426;29;950;-24
2022/01/04 00:55:05;;;;;;;;;;;;;;;;;;1011632;29;820;-24
2022/01/04 00:55:36;;;;;;;;;;;;;;;;;;1011266;29;1679;-23
2022/01/04 00:56:06;;;;;;;;;;;;;;;;;;1011573;29;896;-24
2022/01/04 00:56:37;;;;;;;;;;;;;;;;;;1011411;29;931;-24
2022/01/04 00:57:07;;;;;;;;;;;;;;;;;;1011531;29;871;-24
2022/01/04 00:57:37;;;;;;;;;;;;;;;;;;1011534;29;809;-23
2022/01/04 00:58:08;;;;;;;;;;;;;;;;;;1011500;29;819;-24
2022/01/04 00:58:38;;;;;;;;;;;;;;;;;;1011479;29;1587;-24
2022/01/04 00:59:09;;;;;;;;;;;;;;;;;;1011658;29;876;-24
2022/01/04 00:59:39;;;;;;;;;;;;;;;;;;1010900;29;1202;-24
2022/01/04 01:00:11;;;;;;;;;;;;;;;;;;1010782;29;959;-24
2022/01/04 01:00:41;;;;;;;;;;;;;;;;;;1010799;29;832;-24
2022/01/04 01:01:12;;;;;;;;;;;;;;;;;;1011174;29;888;-24
2022/01/04 01:01:42;;;;;;;;;;;;;;;;;;1011653;29;927;-24
2022/01/04 01:02:12;;;;;;;;;;;;;;;;;;1011421;29;947;-23
2022/01/04 01:02:43;;;;;;;;;;;;;;;;;;1011607;29;935;-24
2022/01/04 01:03:13;;;;;;;;;;;;;;;;;;1011457;29;856;-24
2022/01/04 01:03:44;;;;;;;;;;;;;;;;;;1011562;29;971;-24
2022/01/04 01:04:14;;;;;;;;;;;;;;;;;;1011504;29;817;-24
2022/01/04 01:04:44;;;;;;;;;;;;;;;;;;1011536;29;839;-24
2022/01/04 01:05:15;;;;;;;;;;;;;;;;;;1011459;29;979;-24
2022/01/04 01:05:46;;;;;;;;;;;;;;;;;;1011051;29;923;-24
2022/01/04 01:06:17;;;;;;;;;;;;;;;;;;1011103;29;927;-24
2022/01/04 01:06:47;;;;;;;;;;;;;;;;;;1011319;29;852;-24
2022/01/04 01:07:18;;;;;;;;;;;;;;;;;;1010973;29;932;-24
2022/01/04 01:07:48;;;;;;;;;;;;;;;;;;1011498;29;1361;-24
2022/01/04 01:08:18;;;;;;;;;;;;;;;;;;1011476;29;836;-24
2022/01/04 01:08:49;;;;;;;;;;;;;;;;;;1011466;29;876;-24
2022/01/04 01:09:21;;;;;;;;;;;;;;;;;;1011432;29;852;-23
2022/01/04 01:10:09;;;;;;;;;;;;;;;;;;1011378;29;840;-24
2022/01/04 01:10:43;;;;;;;;;;;;;;;;;;1011318;29;896;-24
2022/01/04 01:11:14;;;;;;;;;;;;;;;;;;1011050;29;899;-24
2022/01/04 01:11:44;;;;;;;;;;;;;;;;;;1011228;29;921;-24
2022/01/04 01:12:14;;;;;;;;;;;;;;;;;;1011322;29;828;-24
2022/01/04 01:12:45;;;;;;;;;;;;;;;;;;1011453;29;975;-23
2022/01/04 01:13:15;;;;;;;;;;;;;;;;;;1011526;29;1360;-24
2022/01/04 01:13:46;;;;;;;;;;;;;;;;;;1011495;29;1911;-24
2022/01/04 01:14:16;;;;;;;;;;;;;;;;;;1011423;29;1270;-24
2022/01/04 01:14:46;;;;;;;;;;;;;;;;;;1011612;29;951;-23
2022/01/04 01:15:17;;;;;;;;;;;;;;;;;;1011368;29;943;-24
2022/01/04 01:15:47;;;;;;;;;;;;;;;;;;1011441;29;939;-24
2022/01/04 01:16:18;;;;;;;;;;;;;;;;;;1011445;29;859;-24
2022/01/04 01:16:48;;;;;;;;;;;;;;;;;;1011522;29;967;-24
2022/01/04 01:17:18;;;;;;;;;;;;;;;;;;1011446;29;884;-23
2022/01/04 01:17:49;;;;;;;;;;;;;;;;;;1011454;29;939;-23
2022/01/04 01:18:20;;;;;;;;;;;;;;;;;;1011538;29;1113;-24
2022/01/04 01:18:50;;;;;;;;;;;;;;;;;;1011514;29;836;-24
2022/01/04 01:19:21;;;;;;;;;;;;;;;;;;1011467;29;935;-24
2022/01/04 01:19:51;;;;;;;;;;;;;;;;;;1011477;29;860;-23
2022/01/04 01:20:22;;;;;;;;;;;;;;;;;;1011517;29;955;-24
2022/01/04 01:20:52;;;;;;;;;;;;;;;;;;1011535;29;982;-24
2022/01/04 01:21:22;;;;;;;;;;;;;;;;;;1011607;29;872;-24
2022/01/04 01:21:52;;;;;;;;;;;;;;;;;;1011314;29;848;-24
2022/01/04 01:22:23;;;;;;;;;;;;;;;;;;1011550;29;663;-24
2022/01/04 01:22:53;;;;;;;;;;;;;;;;;;1011507;29;805;-24
2022/01/04 01:23:24;;;;;;;;;;;;;;;;;;1011389;29;1070;-24
2022/01/04 01:23:54;;;;;;;;;;;;;;;;;;1011461;29;796;-24
2022/01/04 01:24:24;;;;;;;;;;;;;;;;;;1011457;29;927;-24
2022/01/04 01:24:54;;;;;;;;;;;;;;;;;;1011493;29;868;-24
2022/01/04 01:25:25;;;;;;;;;;;;;;;;;;1011565;29;821;-24
2022/01/04 01:25:56;;;;;;;;;;;;;;;;;;1011199;29;935;-24
2022/01/04 01:26:26;;;;;;;;;;;;;;;;;;1015066;29;1274;-23
2022/01/04 01:26:56;;;;;;;;;;;;;;;;;;1014954;29;987;-23
2022/01/04 01:27:27;;;;;;;;;;;;;;;;;;1015028;29;904;-24
2022/01/04 01:27:57;;;;;;;;;;;;;;;;;;1015157;29;816;-24
2022/01/04 01:28:28;;;;;;;;;;;;;;;;;;1011000;29;804;-24
2022/01/04 01:28:58;;;;;;;;;;;;;;;;;;1011525;29;867;-24
2022/01/04 01:29:28;;;;;;;;;;;;;;;;;;1011576;29;947;-24
2022/01/04 01:29:59;;;;;;;;;;;;;;;;;;1011461;29;856;-24
2022/01/04 01:30:31;;;;;;;;;;;;;;;;;;1011477;29;864;-24
2022/01/04 01:31:02;;;;;;;;;;;;;;;;;;1011500;29;967;-24
2022/01/04 01:31:33;;;;;;;;;;;;;;;;;;1011504;29;900;-24
2022/01/04 01:32:04;;;;;;;;;;;;;;;;;;1011563;29;958;-24
2022/01/04 01:32:34;;;;;;;;;;;;;;;;;;1011262;29;880;-24
2022/01/04 01:33:05;;;;;;;;;;;;;;;;;;1011568;29;903;-24
2022/01/04 01:33:35;;;;;;;;;;;;;;;;;;1011416;29;904;-24
2022/01/04 01:34:05;;;;;;;;;;;;;;;;;;1011430;29;1911;-24
2022/01/04 01:34:36;;;;;;;;;;;;;;;;;;1011414;29;872;-24
2022/01/04 01:35:07;;;;;;;;;;;;;;;;;;1011468;29;954;-24
2022/01/04 01:35:38;;;;;;;;;;;;;;;;;;1011336;29;903;-24
2022/01/04 01:36:08;;;;;;;;;;;;;;;;;;1011480;29;990;-24
2022/01/04 01:36:38;;;;;;;;;;;;;;;;;;1011375;29;900;-24
2022/01/04 01:37:09;;;;;;;;;;;;;;;;;;1011579;29;959;-24
2022/01/04 01:37:39;;;;;;;;;;;;;;;;;;1010925;29;1174;-24
2022/01/04 01:38:10;;;;;;;;;;;;;;;;;;1011122;29;939;-23
2022/01/04 01:38:41;;;;;;;;;;;;;;;;;;1011184;29;963;-24
2022/01/04 01:39:12;;;;;;;;;;;;;;;;;;1011052;29;1471;-24
2022/01/04 01:39:43;;;;;;;;;;;;;;;;;;1011549;29;887;-24
2022/01/04 01:40:13;;;;;;;;;;;;;;;;;;1011431;29;801;-24
2022/01/04 01:40:43;;;;;;;;;;;;;;;;;;1011481;29;911;-24
2022/01/04 01:41:14;;;;;;;;;;;;;;;;;;1011469;29;923;-24
2022/01/04 01:41:44;;;;;;;;;;;;;;;;;;1011426;29;904;-24
2022/01/04 01:42:14;;;;;;;;;;;;;;;;;;1011624;29;887;-23
2022/01/04 01:42:45;;;;;;;;;;;;;;;;;;1011395;29;962;-24
2022/01/04 01:43:15;;;;;;;;;;;;;;;;;;1011472;29;915;-24
2022/01/04 01:43:47;;;;;;;;;;;;;;;;;;1011497;29;714;-24
2022/01/04 01:44:17;;;;;;;;;;;;;;;;;;1011435;29;947;-24
2022/01/04 01:44:48;;;;;;;;;;;;;;;;;;1011517;29;1013;-24
2022/01/04 01:45:21;;;;;;;;;;;;;;;;;;1011388;29;1282;-24
2022/01/04 01:45:53;;;;;;;;;;;;;;;;;;1011172;29;957;-24
2022/01/04 01:46:23;;;;;;;;;;;;;;;;;;1011527;29;916;-24
2022/01/04 01:46:54;;;;;;;;;;;;;;;;;;1011287;29;923;-24
2022/01/04 01:47:24;;;;;;;;;;;;;;;;;;1011539;29;813;-24
2022/01/04 01:47:54;;;;;;;;;;;;;;;;;;1011400;29;907;-24
2022/01/04 01:48:25;;;;;;;;;;;;;;;;;;1011467;29;943;-24
2022/01/04 01:48:55;;;;;;;;;;;;;;;;;;1011398;29;816;-24
2022/01/04 01:49:26;;;;;;;;;;;;;;;;;;1011499;29;804;-24
2022/01/04 01:49:56;;;;;;;;;;;;;;;;;;1011378;29;848;-24
2022/01/04 01:50:26;;;;;;;;;;;;;;;;;;1011313;29;752;-23
2022/01/04 01:50:57;;;;;;;;;;;;;;;;;;1010951;29;915;-24
2022/01/04 01:51:28;;;;;;;;;;;;;;;;;;1011254;29;824;-24
2022/01/04 01:51:59;;;;;;;;;;;;;;;;;;1011002;29;923;-24
2022/01/04 01:52:29;;;;;;;;;;;;;;;;;;1011511;29;812;-24
2022/01/04 01:53:00;;;;;;;;;;;;;;;;;;1011547;29;868;-24
2022/01/04 01:53:31;;;;;;;;;;;;;;;;;;1011336;29;939;-24
2022/01/04 01:54:02;;;;;;;;;;;;;;;;;;1011382;29;1915;-24
2022/01/04 01:54:32;;;;;;;;;;;;;;;;;;1011537;29;887;-24
2022/01/04 01:55:03;;;;;;;;;;;;;;;;;;1011420;29;867;-24
2022/01/04 01:55:34;;;;;;;;;;;;;;;;;;1011317;29;946;-23
2022/01/04 01:56:04;;;;;;;;;;;;;;;;;;1011343;29;912;-24
2022/01/04 01:56:34;;;;;;;;;;;;;;;;;;1011492;29;986;-24
2022/01/04 01:57:05;;;;;;;;;;;;;;;;;;1011467;29;919;-24
2022/01/04 01:57:36;;;;;;;;;;;;;;;;;;1011367;29;855;-24
2022/01/04 01:58:06;;;;;;;;;;;;;;;;;;1011495;29;1145;-24
2022/01/04 01:58:36;;;;;;;;;;;;;;;;;;1011396;29;821;-24
2022/01/04 01:59:07;;;;;;;;;;;;;;;;;;1011477;29;864;-24
2022/01/04 01:59:38;;;;;;;;;;;;;;;;;;1011459;29;896;-24
2022/01/04 02:00:11;;;;;;;;;;;;;;;;;;1011409;29;960;-23
2022/01/04 02:00:42;;;;;;;;;;;;;;;;;;1011599;29;694;-23
2022/01/04 02:01:13;;;;;;;;;;;;;;;;;;1011323;29;828;-24
2022/01/04 02:01:44;;;;;;;;;;;;;;;;;;1011446;29;809;-23
2022/01/04 02:02:14;;;;;;;;;;;;;;;;;;1011380;29;879;-23
2022/01/04 02:02:45;;;;;;;;;;;;;;;;;;1011506;29;883;-24
2022/01/04 02:03:15;;;;;;;;;;;;;;;;;;1011360;29;951;-24
2022/01/04 02:03:46;;;;;;;;;;;;;;;;;;1011434;29;824;-24
2022/01/04 02:04:16;;;;;;;;;;;;;;;;;;1011230;29;989;-24
2022/01/04 02:04:46;;;;;;;;;;;;;;;;;;1011587;29;839;-24
2022/01/04 02:05:17;;;;;;;;;;;;;;;;;;1011300;29;919;-24
2022/01/04 02:05:47;;;;;;;;;;;;;;;;;;1011434;29;840;-24
2022/01/04 02:06:18;;;;;;;;;;;;;;;;;;1011328;29;963;-23
2022/01/04 02:06:50;;;;;;;;;;;;;;;;;;1011413;29;884;-24
2022/01/04 02:07:20;;;;;;;;;;;;;;;;;;1011467;29;820;-24
2022/01/04 02:07:51;;;;;;;;;;;;;;;;;;1011208;29;1027;-24
2022/01/04 02:08:22;;;;;;;;;;;;;;;;;;1011370;29;891;-23
2022/01/04 02:08:52;;;;;;;;;;;;;;;;;;1011472;29;919;-24
2022/01/04 02:09:24;;;;;;;;;;;;;;;;;;1011280;29;864;-24
2022/01/04 02:10:03;;;;;;;;;;;;;;;;;;1011383;29;820;-24
2022/01/04 02:10:33;;;;;;;;;;;;;;;;;;1011225;29;943;-23
2022/01/04 02:11:04;;;;;;;;;;;;;;;;;;1011566;29;821;-23
2022/01/04 02:11:35;;;;;;;;;;;;;;;;;;1011417;29;900;-24
2022/01/04 02:12:06;;;;;;;;;;;;;;;;;;1012124;29;974;-24
2022/01/04 02:12:40;;;;;;;;;;;;;;;;;;1012041;29;939;-24
2022/01/04 02:13:11;;;;;;;;;;;;;;;;;;1011935;29;994;-24
2022/01/04 02:13:41;;;;;;;;;;;;;;;;;;1012213;29;979;-24
2022/01/04 02:14:12;;;;;;;;;;;;;;;;;;1011911;29;1903;-24
2022/01/04 02:14:49;;;;;;;;;;;;;;;;;;1012079;29;1053;-23
2022/01/04 02:15:21;;;;;;;;;;;;;;;;;;1012142;29;804;-23
2022/01/04 02:15:52;;;;;;;;;;;;;;;;;;1011893;29;887;-23
2022/01/04 02:16:24;;;;;;;;;;;;;;;;;;1015562;29;930;-24
2022/01/04 02:16:55;;;;;;;;;;;;;;;;;;1015692;29;899;-24
2022/01/04 02:17:25;;;;;;;;;;;;;;;;;;1015628;29;915;-24
2022/01/04 02:17:56;;;;;;;;;;;;;;;;;;1015455;29;839;-24
2022/01/04 02:18:26;;;;;;;;;;;;;;;;;;1012026;29;852;-24
2022/01/04 02:19:00;;;;;;;;;;;;;;;;;;1012093;29;871;-24
2022/01/04 02:19:33;;;;;;;;;;;;;;;;;;1012137;29;824;-24
2022/01/04 02:20:04;;;;;;;;;;;;;;;;;;1012065;29;935;-23
2022/01/04 02:20:34;;;;;;;;;;;;;;;;;;1011997;29;1116;-24
2022/01/04 02:21:05;;;;;;;;;;;;;;;;;;1012242;29;923;-24
2022/01/04 02:21:35;;;;;;;;;;;;;;;;;;1012002;29;793;-24
2022/01/04 02:22:06;;;;;;;;;;;;;;;;;;1012271;29;951;-24
2022/01/04 02:22:36;;;;;;;;;;;;;;;;;;1011874;29;891;-24
2022/01/04 02:23:07;;;;;;;;;;;;;;;;;;1012258;29;903;-24
2022/01/04 02:23:37;;;;;;;;;;;;;;;;;;1011990;29;959;-24
2022/01/04 02:24:07;;;;;;;;;;;;;;;;;;1012180;29;939;-24
2022/01/04 02:24:38;;;;;;;;;;;;;;;;;;1012011;29;848;-24
2022/01/04 02:25:09;;;;;;;;;;;;;;;;;;1012026;29;931;-24
2022/01/04 02:25:39;;;;;;;;;;;;;;;;;;1011659;29;832;-23
2022/01/04 02:26:10;;;;;;;;;;;;;;;;;;1011763;29;915;-24
2022/01/04 02:26:40;;;;;;;;;;;;;;;;;;1011703;29;931;-24
2022/01/04 02:27:11;;;;;;;;;;;;;;;;;;1011727;29;1373;-23
2022/01/04 02:27:42;;;;;;;;;;;;;;;;;;1012043;29;820;-24
2022/01/04 02:28:12;;;;;;;;;;;;;;;;;;1012099;29;855;-24
2022/01/04 02:28:43;;;;;;;;;;;;;;;;;;1012101;29;895;-23
2022/01/04 02:29:13;;;;;;;;;;;;;;;;;;1011916;29;1717;-24
2022/01/04 02:29:45;;;;;;;;;;;;;;;;;;1012050;29;962;-24
2022/01/04 02:30:16;;;;;;;;;;;;;;;;;;1012057;29;840;-24
2022/01/04 02:30:47;;;;;;;;;;;;;;;;;;1012133;29;935;-24
2022/01/04 02:31:18;;;;;;;;;;;;;;;;;;1012049;29;907;-24
2022/01/04 02:31:48;;;;;;;;;;;;;;;;;;1012025;29;872;-24
2022/01/04 02:32:19;;;;;;;;;;;;;;;;;;1012068;29;923;-24
2022/01/04 02:32:49;;;;;;;;;;;;;;;;;;1012040;29;958;-24
2022/01/04 02:33:19;;;;;;;;;;;;;;;;;;1011902;29;773;-24
2022/01/04 02:33:50;;;;;;;;;;;;;;;;;;1011964;29;1984;-24
2022/01/04 02:34:20;;;;;;;;;;;;;;;;;;1011952;29;1277;-24
2022/01/04 02:34:51;;;;;;;;;;;;;;;;;;1011986;29;951;-24
2022/01/04 02:35:26;;;;;;;;;;;;;;;;;;1012064;29;895;-24
2022/01/04 02:35:56;;;;;;;;;;;;;;;;;;1011765;29;935;-24
2022/01/04 02:36:26;;;;;;;;;;;;;;;;;;1012080;29;812;-23
2022/01/04 02:36:57;;;;;;;;;;;;;;;;;;1011973;29;955;-24
2022/01/04 02:37:28;;;;;;;;;;;;;;;;;;1011941;29;958;-24
2022/01/04 02:37:59;;;;;;;;;;;;;;;;;;1012021;29;843;-24
2022/01/04 02:38:30;;;;;;;;;;;;;;;;;;1011910;29;1017;-24
2022/01/04 02:39:00;;;;;;;;;;;;;;;;;;1012105;29;943;-24
2022/01/04 02:39:31;;;;;;;;;;;;;;;;;;1011901;29;938;-24
2022/01/04 02:40:02;;;;;;;;;;;;;;;;;;1012018;29;915;-24
2022/01/04 02:40:33;;;;;;;;;;;;;;;;;;1012011;29;844;-24
2022/01/04 02:41:03;;;;;;;;;;;;;;;;;;1012031;29;879;-24
2022/01/04 02:41:34;;;;;;;;;;;;;;;;;;1011923;29;1384;-24
2022/01/04 02:42:04;;;;;;;;;;;;;;;;;;1012037;29;1002;-24
2022/01/04 02:42:35;;;;;;;;;;;;;;;;;;1011845;29;947;-24
2022/01/04 02:43:05;;;;;;;;;;;;;;;;;;1012186;29;812;-24
2022/01/04 02:43:35;;;;;;;;;;;;;;;;;;1011851;29;939;-24
2022/01/04 02:44:06;;;;;;;;;;;;;;;;;;1012035;29;908;-24
2022/01/04 02:44:36;;;;;;;;;;;;;;;;;;1011965;29;1711;-24
2022/01/04 02:45:08;;;;;;;;;;;;;;;;;;1011992;29;805;-24
2022/01/04 02:45:38;;;;;;;;;;;;;;;;;;1011772;29;1279;-24
2022/01/04 02:46:08;;;;;;;;;;;;;;;;;;1011936;29;963;-23
2022/01/04 02:46:39;;;;;;;;;;;;;;;;;;1011873;29;937;-24
2022/01/04 02:47:09;;;;;;;;;;;;;;;;;;1011970;29;875;-24
2022/01/04 02:47:39;;;;;;;;;;;;;;;;;;1011866;29;887;-24
2022/01/04 02:48:10;;;;;;;;;;;;;;;;;;1011946;29;895;-24
2022/01/04 02:48:41;;;;;;;;;;;;;;;;;;1012059;29;800;-23
2022/01/04 02:49:12;;;;;;;;;;;;;;;;;;1011852;29;887;-24
2022/01/04 02:49:42;;;;;;;;;;;;;;;;;;1012085;29;821;-24
2022/01/04 02:50:13;;;;;;;;;;;;;;;;;;1011794;29;899;-24
2022/01/04 02:50:43;;;;;;;;;;;;;;;;;;1011993;29;982;-24
2022/01/04 02:51:14;;;;;;;;;;;;;;;;;;1011908;29;927;-23
2022/01/04 02:51:44;;;;;;;;;;;;;;;;;;1011918;29;801;-23
2022/01/04 02:52:14;;;;;;;;;;;;;;;;;;1011838;29;951;-23
2022/01/04 02:52:45;;;;;;;;;;;;;;;;;;1012010;29;904;-23
2022/01/04 02:53:15;;;;;;;;;;;;;;;;;;1011883;29;1010;-23
2022/01/04 02:53:45;;;;;;;;;;;;;;;;;;1011973;29;1915;-23
2022/01/04 02:54:16;;;;;;;;;;;;;;;;;;1011778;29;832;-23
2022/01/04 02:54:46;;;;;;;;;;;;;;;;;;1012073;29;789;-23
2022/01/04 02:55:17;;;;;;;;;;;;;;;;;;1011936;29;916;-23
2022/01/04 02:55:47;;;;;;;;;;;;;;;;;;1011760;29;955;-23
2022/01/04 02:56:18;;;;;;;;;;;;;;;;;;1011826;29;931;-23
2022/01/04 02:56:48;;;;;;;;;;;;;;;;;;1011997;29;932;-23
2022/01/04 02:57:19;;;;;;;;;;;;;;;;;;1011907;29;1642;-23
2022/01/04 02:57:49;;;;;;;;;;;;;;;;;;1011883;29;947;-23
2022/01/04 02:58:19;;;;;;;;;;;;;;;;;;1011885;29;1007;-23
2022/01/04 02:58:50;;;;;;;;;;;;;;;;;;1011907;29;880;-23
2022/01/04 02:59:20;;;;;;;;;;;;;;;;;;1012089;29;883;-23
2022/01/04 02:59:51;;;;;;;;;;;;;;;;;;1011846;29;880;-23
2022/01/04 03:00:23;;;;;;;;;;;;;;;;;;1012043;29;896;-23
2022/01/04 03:00:53;;;;;;;;;;;;;;;;;;1011710;29;958;-23
2022/01/04 03:01:23;;;;;;;;;;;;;;;;;;1011981;29;883;-23
2022/01/04 03:01:54;;;;;;;;;;;;;;;;;;1011944;29;864;-23
2022/01/04 03:02:24;;;;;;;;;;;;;;;;;;1011935;29;856;-23
2022/01/04 03:02:55;;;;;;;;;;;;;;;;;;1011914;29;884;-23
2022/01/04 03:03:25;;;;;;;;;;;;;;;;;;1011941;29;1003;-23
2022/01/04 03:03:56;;;;;;;;;;;;;;;;;;1011866;29;920;-23
2022/01/04 03:04:26;;;;;;;;;;;;;;;;;;1011965;29;888;-23
2022/01/04 03:04:57;;;;;;;;;;;;;;;;;;1011761;29;1081;-23
2022/01/04 03:05:27;;;;;;;;;;;;;;;;;;1011933;29;975;-23
2022/01/04 03:05:57;;;;;;;;;;;;;;;;;;1011761;29;912;-23
2022/01/04 03:06:28;;;;;;;;;;;;;;;;;;1011900;29;887;-23
2022/01/04 03:06:58;;;;;;;;;;;;;;;;;;1011781;29;959;-24
2022/01/04 03:07:29;;;;;;;;;;;;;;;;;;1011456;29;808;-23
2022/01/04 03:08:00;;;;;;;;;;;;;;;;;;1011476;29;1188;-23
2022/01/04 03:08:30;;;;;;;;;;;;;;;;;;1011529;29;903;-23
2022/01/04 03:09:01;;;;;;;;;;;;;;;;;;1011508;29;1102;-23
2022/01/04 03:09:32;;;;;;;;;;;;;;;;;;1011793;29;896;-23
2022/01/04 03:10:04;;;;;;;;;;;;;;;;;;1011976;29;813;-23
2022/01/04 03:10:35;;;;;;;;;;;;;;;;;;1011755;29;943;-23
2022/01/04 03:11:05;;;;;;;;;;;;;;;;;;1012028;29;876;-23
2022/01/04 03:11:36;;;;;;;;;;;;;;;;;;1011701;29;947;-23
2022/01/04 03:12:07;;;;;;;;;;;;;;;;;;1012013;29;971;-23
2022/01/04 03:12:39;;;;;;;;;;;;;;;;;;1011802;29;932;-23
2022/01/04 03:13:10;;;;;;;;;;;;;;;;;;1011852;29;928;-23
2022/01/04 03:13:41;;;;;;;;;;;;;;;;;;1011921;29;796;-23
2022/01/04 03:14:11;;;;;;;;;;;;;;;;;;1011738;29;1915;-23
2022/01/04 03:14:41;;;;;;;;;;;;;;;;;;1011960;29;809;-23
2022/01/04 03:15:12;;;;;;;;;;;;;;;;;;1011890;29;987;-23
2022/01/04 03:15:43;;;;;;;;;;;;;;;;;;1011700;29;899;-23
2022/01/04 03:16:13;;;;;;;;;;;;;;;;;;1011923;29;904;-23
2022/01/04 03:16:44;;;;;;;;;;;;;;;;;;1011872;29;899;-23
2022/01/04 03:17:14;;;;;;;;;;;;;;;;;;1011887;29;943;-23
2022/01/04 03:17:44;;;;;;;;;;;;;;;;;;1011927;29;938;-23
2022/01/04 03:18:15;;;;;;;;;;;;;;;;;;1011801;29;993;-23
2022/01/04 03:19:18;;;;;;;;;;;;;;;;;;1011952;29;943;-23
2022/01/04 03:19:42;;;;;;;;;;;;;;;;;;1009721;29;1425;-23
2022/01/04 03:20:12;;;;;;;;;;;;;;;;;;1011914;29;892;-23
2022/01/04 03:20:42;;;;;;;;;;;;;;;;;;1011904;29;920;-23
2022/01/04 03:21:13;;;;;;;;;;;;;;;;;;1011883;29;979;-23
2022/01/04 03:21:44;;;;;;;;;;;;;;;;;;1011919;29;946;-23
2022/01/04 03:22:14;;;;;;;;;;;;;;;;;;1011839;29;951;-24
2022/01/04 03:22:44;;;;;;;;;;;;;;;;;;1011904;29;792;-24
2022/01/04 03:23:15;;;;;;;;;;;;;;;;;;1011316;29;927;-24
2022/01/04 03:23:45;;;;;;;;;;;;;;;;;;1011440;29;816;-24
2022/01/04 03:24:16;;;;;;;;;;;;;;;;;;1011963;29;773;-24
2022/01/04 03:24:46;;;;;;;;;;;;;;;;;;1011797;29;871;-24
2022/01/04 03:25:16;;;;;;;;;;;;;;;;;;1011898;29;817;-23
2022/01/04 03:25:47;;;;;;;;;;;;;;;;;;1011649;29;923;-23
2022/01/04 03:26:17;;;;;;;;;;;;;;;;;;1011859;29;883;-24
2022/01/04 03:26:48;;;;;;;;;;;;;;;;;;1011861;29;1418;-24
2022/01/04 03:27:18;;;;;;;;;;;;;;;;;;1011786;29;801;-24
2022/01/04 03:27:49;;;;;;;;;;;;;;;;;;1011365;29;892;-24
2022/01/04 03:28:21;;;;;;;;;;;;;;;;;;1011567;29;868;-24
2022/01/04 03:28:52;;;;;;;;;;;;;;;;;;1011351;29;892;-24
2022/01/04 03:29:23;;;;;;;;;;;;;;;;;;1011661;29;911;-24
2022/01/04 03:29:53;;;;;;;;;;;;;;;;;;1011608;29;943;-24
2022/01/04 03:30:23;;;;;;;;;;;;;;;;;;1011929;29;971;-24
2022/01/04 03:30:54;;;;;;;;;;;;;;;;;;1011766;29;884;-24
2022/01/04 03:31:25;;;;;;;;;;;;;;;;;;1011481;29;903;-24
2022/01/04 03:31:57;;;;;;;;;;;;;;;;;;1011433;29;800;-24
2022/01/04 03:32:27;;;;;;;;;;;;;;;;;;1011456;29;788;-24
2022/01/04 03:32:58;;;;;;;;;;;;;;;;;;1011474;29;947;-24
2022/01/04 03:33:28;;;;;;;;;;;;;;;;;;1011859;29;967;-24
2022/01/04 03:33:59;;;;;;;;;;;;;;;;;;1011618;29;1960;-24
2022/01/04 03:34:29;;;;;;;;;;;;;;;;;;1011809;29;1265;-24
2022/01/04 03:34:59;;;;;;;;;;;;;;;;;;1011748;29;947;-24
2022/01/04 03:35:29;;;;;;;;;;;;;;;;;;1011696;29;975;-25
2022/01/04 03:36:00;;;;;;;;;;;;;;;;;;1011853;29;875;-24
2022/01/04 03:36:31;;;;;;;;;;;;;;;;;;1011697;29;967;-24
2022/01/04 03:37:02;;;;;;;;;;;;;;;;;;1011920;29;833;-24
2022/01/04 03:37:32;;;;;;;;;;;;;;;;;;1011843;29;836;-24
2022/01/04 03:38:02;;;;;;;;;;;;;;;;;;1011789;29;785;-24
2022/01/04 03:38:33;;;;;;;;;;;;;;;;;;1011842;29;930;-24
2022/01/04 03:39:05;;;;;;;;;;;;;;;;;;1011777;29;1014;-24
2022/01/04 03:39:36;;;;;;;;;;;;;;;;;;1011772;29;892;-24
2022/01/04 03:40:06;;;;;;;;;;;;;;;;;;1011889;29;836;-24
2022/01/04 03:40:36;;;;;;;;;;;;;;;;;;1011607;29;1062;-24